sensor_id;sensor_type;location;lat;lon;timestamp;temperature;humidity
7876;DHT22;69649;53.712;9.680;2024-01-07T00:02:13;-0.90;69.00
7876;DHT22;69649;53.712;9.680;2024-01-07T00:04:40;-0.90;68.80
7876;DHT22;69649;53.712;9.680;2024-01-07T00:07:06;-0.90;69.30
7876;DHT22;69649;53.712;9.680;2024-01-07T00:09:32;-0.90;69.80
7876;DHT22;69649;53.712;9.680;2024-01-07T00:11:57;-0.90;68.90
7876;DHT22;69649;53.712;9.680;2024-01-07T00:14:23;-0.90;68.90
7876;DHT22;69649;53.712;9.680;2024-01-07T00:16:49;-0.90;68.90
7876;DHT22;69649;53.712;9.680;2024-01-07T00:19:14;-0.90;69.30
7876;DHT22;69649;53.712;9.680;2024-01-07T00:21:40;-0.90;69.10
7876;DHT22;69649;53.712;9.680;2024-01-07T00:24:06;-0.90;68.90
7876;DHT22;69649;53.712;9.680;2024-01-07T00:26:32;-0.90;69.00
7876;DHT22;69649;53.712;9.680;2024-01-07T00:28:57;-0.90;69.00
7876;DHT22;69649;53.712;9.680;2024-01-07T00:31:23;-0.90;69.10
7876;DHT22;69649;53.712;9.680;2024-01-07T00:33:49;-1.00;69.00
7876;DHT22;69649;53.712;9.680;2024-01-07T00:36:14;-1.00;68.70
7876;DHT22;69649;53.712;9.680;2024-01-07T00:38:40;-1.00;68.70
7876;DHT22;69649;53.712;9.680;2024-01-07T00:41:06;-1.00;68.60
7876;DHT22;69649;53.712;9.680;2024-01-07T00:43:32;-1.00;68.50
7876;DHT22;69649;53.712;9.680;2024-01-07T00:46:17;-1.00;69.10
7876;DHT22;69649;53.712;9.680;2024-01-07T00:48:43;-1.00;69.00
7876;DHT22;69649;53.712;9.680;2024-01-07T00:51:09;-1.00;68.80
7876;DHT22;69649;53.712;9.680;2024-01-07T00:53:34;-1.00;68.60
7876;DHT22;69649;53.712;9.680;2024-01-07T00:56:00;-1.00;69.00
7876;DHT22;69649;53.712;9.680;2024-01-07T00:58:26;-1.10;69.00
7876;DHT22;69649;53.712;9.680;2024-01-07T01:00:51;-1.10;69.50
7876;DHT22;69649;53.712;9.680;2024-01-07T01:03:19;-1.10;69.00
7876;DHT22;69649;53.712;9.680;2024-01-07T01:05:46;-1.10;69.10
7876;DHT22;69649;53.712;9.680;2024-01-07T01:08:11;-1.10;68.90
7876;DHT22;69649;53.712;9.680;2024-01-07T01:10:37;-1.10;68.80
7876;DHT22;69649;53.712;9.680;2024-01-07T01:15:51;-1.10;69.00
7876;DHT22;69649;53.712;9.680;2024-01-07T01:18:17;-1.10;69.10
7876;DHT22;69649;53.712;9.680;2024-01-07T01:20:43;-1.10;68.90
7876;DHT22;69649;53.712;9.680;2024-01-07T01:23:09;-1.10;68.70
7876;DHT22;69649;53.712;9.680;2024-01-07T01:25:35;-1.10;68.70
7876;DHT22;69649;53.712;9.680;2024-01-07T01:28:01;-1.10;68.90
7876;DHT22;69649;53.712;9.680;2024-01-07T01:30:27;-1.10;68.90
7876;DHT22;69649;53.712;9.680;2024-01-07T01:32:54;-1.10;68.60
7876;DHT22;69649;53.712;9.680;2024-01-07T01:35:20;-1.10;68.70
7876;DHT22;69649;53.712;9.680;2024-01-07T01:37:46;-1.10;68.70
7876;DHT22;69649;53.712;9.680;2024-01-07T01:40:12;-1.10;68.50
7876;DHT22;69649;53.712;9.680;2024-01-07T01:42:37;-1.10;68.60
7876;DHT22;69649;53.712;9.680;2024-01-07T01:45:04;-1.10;68.80
7876;DHT22;69649;53.712;9.680;2024-01-07T01:47:30;-1.10;68.90
7876;DHT22;69649;53.712;9.680;2024-01-07T01:49:57;-1.10;68.80
7876;DHT22;69649;53.712;9.680;2024-01-07T01:52:23;-1.10;68.80
7876;DHT22;69649;53.712;9.680;2024-01-07T01:54:49;-1.10;69.10
7876;DHT22;69649;53.712;9.680;2024-01-07T01:57:17;-1.10;69.50
7876;DHT22;69649;53.712;9.680;2024-01-07T01:59:44;-1.10;69.30
7876;DHT22;69649;53.712;9.680;2024-01-07T02:02:10;-1.10;69.40
7876;DHT22;69649;53.712;9.680;2024-01-07T02:04:36;-1.10;69.10
7876;DHT22;69649;53.712;9.680;2024-01-07T02:07:01;-1.10;68.90
7876;DHT22;69649;53.712;9.680;2024-01-07T02:09:27;-1.10;68.70
7876;DHT22;69649;53.712;9.680;2024-01-07T02:12:03;-1.10;68.40
7876;DHT22;69649;53.712;9.680;2024-01-07T02:14:29;-1.10;68.70
7876;DHT22;69649;53.712;9.680;2024-01-07T02:16:55;-1.10;68.90
7876;DHT22;69649;53.712;9.680;2024-01-07T02:19:21;-1.10;69.00
7876;DHT22;69649;53.712;9.680;2024-01-07T02:21:50;-1.10;68.90
7876;DHT22;69649;53.712;9.680;2024-01-07T02:24:16;-1.00;68.50
7876;DHT22;69649;53.712;9.680;2024-01-07T02:26:42;-1.00;68.80
7876;DHT22;69649;53.712;9.680;2024-01-07T02:29:08;-1.00;68.80
7876;DHT22;69649;53.712;9.680;2024-01-07T02:31:34;-1.00;68.90
7876;DHT22;69649;53.712;9.680;2024-01-07T02:34:00;-1.00;69.00
7876;DHT22;69649;53.712;9.680;2024-01-07T02:36:25;-0.90;69.00
7876;DHT22;69649;53.712;9.680;2024-01-07T02:38:51;-0.90;68.60
7876;DHT22;69649;53.712;9.680;2024-01-07T02:41:17;-0.90;69.20
7876;DHT22;69649;53.712;9.680;2024-01-07T02:43:43;-0.90;69.00
7876;DHT22;69649;53.712;9.680;2024-01-07T02:46:08;-0.80;68.40
7876;DHT22;69649;53.712;9.680;2024-01-07T02:48:34;-0.70;68.40
7876;DHT22;69649;53.712;9.680;2024-01-07T02:51:00;-0.70;68.10
7876;DHT22;69649;53.712;9.680;2024-01-07T02:53:28;-0.70;68.30
7876;DHT22;69649;53.712;9.680;2024-01-07T02:55:54;-0.60;68.40
7876;DHT22;69649;53.712;9.680;2024-01-07T02:58:20;-0.60;68.20
7876;DHT22;69649;53.712;9.680;2024-01-07T03:00:46;-0.60;68.20
7876;DHT22;69649;53.712;9.680;2024-01-07T03:03:11;-0.60;68.70
7876;DHT22;69649;53.712;9.680;2024-01-07T03:05:37;-0.60;69.00
7876;DHT22;69649;53.712;9.680;2024-01-07T03:08:04;-0.60;68.20
7876;DHT22;69649;53.712;9.680;2024-01-07T03:10:29;-0.60;68.40
7876;DHT22;69649;53.712;9.680;2024-01-07T03:12:55;-0.60;68.60
7876;DHT22;69649;53.712;9.680;2024-01-07T03:15:21;-0.60;69.00
7876;DHT22;69649;53.712;9.680;2024-01-07T03:17:46;-0.60;68.60
7876;DHT22;69649;53.712;9.680;2024-01-07T03:20:12;-0.50;68.10
7876;DHT22;69649;53.712;9.680;2024-01-07T03:22:38;-0.50;68.30
7876;DHT22;69649;53.712;9.680;2024-01-07T03:25:05;-0.50;68.50
7876;DHT22;69649;53.712;9.680;2024-01-07T03:27:31;-0.50;68.50
7876;DHT22;69649;53.712;9.680;2024-01-07T03:29:56;-0.40;68.50
7876;DHT22;69649;53.712;9.680;2024-01-07T03:32:22;-0.40;68.30
7876;DHT22;69649;53.712;9.680;2024-01-07T03:34:48;-0.40;68.40
7876;DHT22;69649;53.712;9.680;2024-01-07T03:37:14;-0.40;68.40
7876;DHT22;69649;53.712;9.680;2024-01-07T03:39:39;-0.40;68.00
7876;DHT22;69649;53.712;9.680;2024-01-07T03:42:05;-0.40;68.00
7876;DHT22;69649;53.712;9.680;2024-01-07T03:44:33;-0.40;67.90
7876;DHT22;69649;53.712;9.680;2024-01-07T03:46:59;-0.40;68.40
7876;DHT22;69649;53.712;9.680;2024-01-07T03:49:24;-0.40;68.20
7876;DHT22;69649;53.712;9.680;2024-01-07T03:51:50;-0.40;68.70
7876;DHT22;69649;53.712;9.680;2024-01-07T03:54:16;-0.40;68.50
7876;DHT22;69649;53.712;9.680;2024-01-07T03:56:41;-0.40;68.80
7876;DHT22;69649;53.712;9.680;2024-01-07T04:01:48;-0.40;68.50
7876;DHT22;69649;53.712;9.680;2024-01-07T04:04:14;-0.40;68.80
7876;DHT22;69649;53.712;9.680;2024-01-07T04:06:40;-0.40;68.70
7876;DHT22;69649;53.712;9.680;2024-01-07T04:09:05;-0.40;68.70
7876;DHT22;69649;53.712;9.680;2024-01-07T04:11:31;-0.30;68.70
7876;DHT22;69649;53.712;9.680;2024-01-07T04:13:57;-0.30;68.50
7876;DHT22;69649;53.712;9.680;2024-01-07T04:16:23;-0.30;68.60
7876;DHT22;69649;53.712;9.680;2024-01-07T04:18:49;-0.30;68.60
7876;DHT22;69649;53.712;9.680;2024-01-07T04:21:15;-0.30;68.40
7876;DHT22;69649;53.712;9.680;2024-01-07T04:23:41;-0.30;68.40
7876;DHT22;69649;53.712;9.680;2024-01-07T04:26:07;-0.30;68.60
7876;DHT22;69649;53.712;9.680;2024-01-07T04:28:33;-0.30;68.60
7876;DHT22;69649;53.712;9.680;2024-01-07T04:30:59;-0.30;68.30
7876;DHT22;69649;53.712;9.680;2024-01-07T04:33:24;-0.30;68.50
7876;DHT22;69649;53.712;9.680;2024-01-07T04:35:50;-0.30;68.10
7876;DHT22;69649;53.712;9.680;2024-01-07T04:38:16;-0.30;68.40
7876;DHT22;69649;53.712;9.680;2024-01-07T04:40:42;-0.30;68.50
7876;DHT22;69649;53.712;9.680;2024-01-07T04:43:07;-0.30;68.40
7876;DHT22;69649;53.712;9.680;2024-01-07T04:45:33;-0.30;68.30
7876;DHT22;69649;53.712;9.680;2024-01-07T04:47:59;-0.30;68.30
7876;DHT22;69649;53.712;9.680;2024-01-07T04:50:24;-0.30;68.20
7876;DHT22;69649;53.712;9.680;2024-01-07T04:52:50;-0.30;68.40
7876;DHT22;69649;53.712;9.680;2024-01-07T04:55:16;-0.30;68.20
7876;DHT22;69649;53.712;9.680;2024-01-07T04:57:42;-0.30;68.20
7876;DHT22;69649;53.712;9.680;2024-01-07T05:00:08;-0.20;68.20
7876;DHT22;69649;53.712;9.680;2024-01-07T05:02:34;-0.20;68.20
7876;DHT22;69649;53.712;9.680;2024-01-07T05:05:00;-0.20;68.20
7876;DHT22;69649;53.712;9.680;2024-01-07T05:07:26;-0.20;68.40
7876;DHT22;69649;53.712;9.680;2024-01-07T05:09:51;-0.30;68.80
7876;DHT22;69649;53.712;9.680;2024-01-07T05:12:17;-0.30;68.80
7876;DHT22;69649;53.712;9.680;2024-01-07T05:14:43;-0.30;68.90
7876;DHT22;69649;53.712;9.680;2024-01-07T05:17:09;-0.30;69.20
7876;DHT22;69649;53.712;9.680;2024-01-07T05:19:35;-0.20;69.00
7876;DHT22;69649;53.712;9.680;2024-01-07T05:22:00;-0.20;69.30
7876;DHT22;69649;53.712;9.680;2024-01-07T05:24:26;-0.20;69.10
7876;DHT22;69649;53.712;9.680;2024-01-07T05:26:52;-0.10;68.90
7876;DHT22;69649;53.712;9.680;2024-01-07T05:29:18;-0.10;69.10
7876;DHT22;69649;53.712;9.680;2024-01-07T05:31:44;-0.20;69.30
7876;DHT22;69649;53.712;9.680;2024-01-07T05:34:10;-0.10;69.10
7876;DHT22;69649;53.712;9.680;2024-01-07T05:36:36;-0.20;69.00
7876;DHT22;69649;53.712;9.680;2024-01-07T05:39:01;-0.10;69.30
7876;DHT22;69649;53.712;9.680;2024-01-07T05:41:28;-0.20;69.00
7876;DHT22;69649;53.712;9.680;2024-01-07T05:43:54;-0.20;69.10
7876;DHT22;69649;53.712;9.680;2024-01-07T05:46:19;-0.20;69.30
7876;DHT22;69649;53.712;9.680;2024-01-07T05:48:50;-0.20;69.40
7876;DHT22;69649;53.712;9.680;2024-01-07T05:51:14;-0.20;69.80
7876;DHT22;69649;53.712;9.680;2024-01-07T05:53:41;-0.20;69.70
7876;DHT22;69649;53.712;9.680;2024-01-07T05:56:07;-0.20;69.70
7876;DHT22;69649;53.712;9.680;2024-01-07T05:58:33;-0.20;69.90
7876;DHT22;69649;53.712;9.680;2024-01-07T06:00:59;-0.20;69.90
7876;DHT22;69649;53.712;9.680;2024-01-07T06:03:26;-0.20;70.00
7876;DHT22;69649;53.712;9.680;2024-01-07T06:05:52;-0.10;69.90
7876;DHT22;69649;53.712;9.680;2024-01-07T06:08:18;-0.10;69.80
7876;DHT22;69649;53.712;9.680;2024-01-07T06:10:44;-0.10;69.70
7876;DHT22;69649;53.712;9.680;2024-01-07T06:13:10;-0.20;70.00
7876;DHT22;69649;53.712;9.680;2024-01-07T06:15:36;-0.20;70.30
7876;DHT22;69649;53.712;9.680;2024-01-07T06:18:01;-0.20;70.60
7876;DHT22;69649;53.712;9.680;2024-01-07T06:20:27;-0.30;70.50
7876;DHT22;69649;53.712;9.680;2024-01-07T06:22:54;-0.20;70.50
7876;DHT22;69649;53.712;9.680;2024-01-07T06:25:19;-0.30;71.00
7876;DHT22;69649;53.712;9.680;2024-01-07T06:27:46;-0.30;71.00
7876;DHT22;69649;53.712;9.680;2024-01-07T06:30:12;-0.30;71.00
7876;DHT22;69649;53.712;9.680;2024-01-07T06:32:38;-0.30;70.90
7876;DHT22;69649;53.712;9.680;2024-01-07T06:35:04;-0.40;70.80
7876;DHT22;69649;53.712;9.680;2024-01-07T06:37:30;-0.40;70.90
7876;DHT22;69649;53.712;9.680;2024-01-07T06:39:56;-0.40;70.90
7876;DHT22;69649;53.712;9.680;2024-01-07T06:42:24;-0.60;71.20
7876;DHT22;69649;53.712;9.680;2024-01-07T06:44:50;-0.60;71.50
7876;DHT22;69649;53.712;9.680;2024-01-07T06:47:16;-0.70;71.60
7876;DHT22;69649;53.712;9.680;2024-01-07T06:49:41;-0.70;72.00
7876;DHT22;69649;53.712;9.680;2024-01-07T06:52:07;-0.80;72.20
7876;DHT22;69649;53.712;9.680;2024-01-07T06:54:33;-0.80;72.50
7876;DHT22;69649;53.712;9.680;2024-01-07T06:56:59;-0.90;72.60
7876;DHT22;69649;53.712;9.680;2024-01-07T06:59:25;-0.90;72.80
7876;DHT22;69649;53.712;9.680;2024-01-07T07:01:51;-0.90;73.20
7876;DHT22;69649;53.712;9.680;2024-01-07T07:04:16;-0.90;73.30
7876;DHT22;69649;53.712;9.680;2024-01-07T07:06:42;-1.00;73.30
7876;DHT22;69649;53.712;9.680;2024-01-07T07:09:08;-1.00;73.40
7876;DHT22;69649;53.712;9.680;2024-01-07T07:11:34;-1.10;73.70
7876;DHT22;69649;53.712;9.680;2024-01-07T07:13:59;-1.10;74.10
7876;DHT22;69649;53.712;9.680;2024-01-07T07:16:25;-1.20;74.50
7876;DHT22;69649;53.712;9.680;2024-01-07T07:18:51;-1.20;74.80
7876;DHT22;69649;53.712;9.680;2024-01-07T07:21:17;-1.30;74.80
7876;DHT22;69649;53.712;9.680;2024-01-07T07:23:43;-1.30;74.90
7876;DHT22;69649;53.712;9.680;2024-01-07T07:26:09;-1.40;74.80
7876;DHT22;69649;53.712;9.680;2024-01-07T07:28:55;-1.40;74.80
7876;DHT22;69649;53.712;9.680;2024-01-07T07:31:20;-1.40;74.90
7876;DHT22;69649;53.712;9.680;2024-01-07T07:33:46;-1.40;74.80
7876;DHT22;69649;53.712;9.680;2024-01-07T07:36:12;-1.40;74.80
7876;DHT22;69649;53.712;9.680;2024-01-07T07:38:38;-1.40;75.10
7876;DHT22;69649;53.712;9.680;2024-01-07T07:41:03;-1.30;74.90
7876;DHT22;69649;53.712;9.680;2024-01-07T07:43:29;-1.30;74.80
7876;DHT22;69649;53.712;9.680;2024-01-07T07:46:15;-1.30;74.70
7876;DHT22;69649;53.712;9.680;2024-01-07T07:48:41;-1.20;74.80
7876;DHT22;69649;53.712;9.680;2024-01-07T07:51:07;-1.10;74.70
7876;DHT22;69649;53.712;9.680;2024-01-07T07:53:33;-1.10;74.60
7876;DHT22;69649;53.712;9.680;2024-01-07T07:56:00;-1.10;74.70
7876;DHT22;69649;53.712;9.680;2024-01-07T07:58:26;-1.10;74.60
7876;DHT22;69649;53.712;9.680;2024-01-07T08:00:52;-1.10;74.50
7876;DHT22;69649;53.712;9.680;2024-01-07T08:03:17;-1.10;74.20
7876;DHT22;69649;53.712;9.680;2024-01-07T08:05:43;-1.10;73.90
7876;DHT22;69649;53.712;9.680;2024-01-07T08:08:09;-1.20;74.10
7876;DHT22;69649;53.712;9.680;2024-01-07T08:10:35;0.10;81.50
7876;DHT22;69649;53.712;9.680;2024-01-07T08:13:01;-0.10;81.00
7876;DHT22;69649;53.712;9.680;2024-01-07T08:15:29;-0.40;77.00
7876;DHT22;69649;53.712;9.680;2024-01-07T08:17:54;-0.70;74.70
7876;DHT22;69649;53.712;9.680;2024-01-07T08:20:20;-0.90;74.00
7876;DHT22;69649;53.712;9.680;2024-01-07T08:22:46;0.00;79.60
7876;DHT22;69649;53.712;9.680;2024-01-07T08:25:12;-0.40;74.90
7876;DHT22;69649;53.712;9.680;2024-01-07T08:27:40;-0.60;73.40
7876;DHT22;69649;53.712;9.680;2024-01-07T08:30:07;-0.70;72.90
7876;DHT22;69649;53.712;9.680;2024-01-07T08:32:33;-0.80;72.80
7876;DHT22;69649;53.712;9.680;2024-01-07T08:35:01;-1.00;72.60
7876;DHT22;69649;53.712;9.680;2024-01-07T08:37:26;-1.10;72.60
7876;DHT22;69649;53.712;9.680;2024-01-07T08:39:52;-1.10;72.40
7876;DHT22;69649;53.712;9.680;2024-01-07T08:42:18;-1.30;72.50
7876;DHT22;69649;53.712;9.680;2024-01-07T08:44:45;-1.30;72.60
7876;DHT22;69649;53.712;9.680;2024-01-07T08:47:10;-1.40;72.80
7876;DHT22;69649;53.712;9.680;2024-01-07T08:49:36;-1.40;73.00
7876;DHT22;69649;53.712;9.680;2024-01-07T08:52:04;-1.40;72.90
7876;DHT22;69649;53.712;9.680;2024-01-07T08:54:30;-1.40;72.90
7876;DHT22;69649;53.712;9.680;2024-01-07T08:56:56;-1.40;72.70
7876;DHT22;69649;53.712;9.680;2024-01-07T08:59:22;-1.40;72.60
7876;DHT22;69649;53.712;9.680;2024-01-07T09:01:48;-1.50;72.60
7876;DHT22;69649;53.712;9.680;2024-01-07T09:04:13;-1.50;72.90
7876;DHT22;69649;53.712;9.680;2024-01-07T09:06:39;-1.40;72.80
7876;DHT22;69649;53.712;9.680;2024-01-07T09:09:06;-1.40;72.50
7876;DHT22;69649;53.712;9.680;2024-01-07T09:11:32;-1.30;72.30
7876;DHT22;69649;53.712;9.680;2024-01-07T09:13:58;-1.40;72.20
7876;DHT22;69649;53.712;9.680;2024-01-07T09:16:24;-1.40;72.30
7876;DHT22;69649;53.712;9.680;2024-01-07T09:18:49;-1.40;72.20
7876;DHT22;69649;53.712;9.680;2024-01-07T09:21:16;-1.50;72.20
7876;DHT22;69649;53.712;9.680;2024-01-07T09:23:44;-1.50;72.20
7876;DHT22;69649;53.712;9.680;2024-01-07T09:26:10;-1.40;72.20
7876;DHT22;69649;53.712;9.680;2024-01-07T09:28:36;-1.40;72.20
7876;DHT22;69649;53.712;9.680;2024-01-07T09:31:02;-1.50;72.00
7876;DHT22;69649;53.712;9.680;2024-01-07T09:33:28;-1.40;72.00
7876;DHT22;69649;53.712;9.680;2024-01-07T09:35:54;-1.40;71.70
7876;DHT22;69649;53.712;9.680;2024-01-07T09:38:20;-1.40;71.80
7876;DHT22;69649;53.712;9.680;2024-01-07T09:40:46;-1.30;71.80
7876;DHT22;69649;53.712;9.680;2024-01-07T09:43:12;-1.30;71.60
7876;DHT22;69649;53.712;9.680;2024-01-07T09:45:38;-1.20;71.80
7876;DHT22;69649;53.712;9.680;2024-01-07T09:48:06;-1.30;71.30
7876;DHT22;69649;53.712;9.680;2024-01-07T09:50:32;-1.20;71.40
7876;DHT22;69649;53.712;9.680;2024-01-07T09:52:58;-1.10;71.20
7876;DHT22;69649;53.712;9.680;2024-01-07T09:55:47;-1.10;71.30
7876;DHT22;69649;53.712;9.680;2024-01-07T09:58:09;-1.10;71.10
7876;DHT22;69649;53.712;9.680;2024-01-07T10:00:36;-1.00;70.70
7876;DHT22;69649;53.712;9.680;2024-01-07T10:03:02;-1.00;70.60
7876;DHT22;69649;53.712;9.680;2024-01-07T10:05:28;-0.90;70.30
7876;DHT22;69649;53.712;9.680;2024-01-07T10:07:54;-0.90;70.10
7876;DHT22;69649;53.712;9.680;2024-01-07T10:10:22;-0.90;70.20
7876;DHT22;69649;53.712;9.680;2024-01-07T10:12:48;-0.90;70.00
7876;DHT22;69649;53.712;9.680;2024-01-07T10:15:14;-0.90;70.10
7876;DHT22;69649;53.712;9.680;2024-01-07T10:17:41;-0.90;70.10
7876;DHT22;69649;53.712;9.680;2024-01-07T10:20:08;-0.90;70.10
7876;DHT22;69649;53.712;9.680;2024-01-07T10:22:39;-0.80;70.00
7876;DHT22;69649;53.712;9.680;2024-01-07T10:25:05;-0.90;70.20
7876;DHT22;69649;53.712;9.680;2024-01-07T10:27:35;-0.80;69.90
7876;DHT22;69649;53.712;9.680;2024-01-07T10:30:02;-0.70;69.80
7876;DHT22;69649;53.712;9.680;2024-01-07T10:32:28;-0.70;69.80
7876;DHT22;69649;53.712;9.680;2024-01-07T10:35:01;-0.70;69.50
7876;DHT22;69649;53.712;9.680;2024-01-07T10:37:24;-0.70;69.60
7876;DHT22;69649;53.712;9.680;2024-01-07T10:39:51;-0.70;69.40
7876;DHT22;69649;53.712;9.680;2024-01-07T10:42:18;-0.70;69.20
7876;DHT22;69649;53.712;9.680;2024-01-07T10:44:44;-0.70;68.90
7876;DHT22;69649;53.712;9.680;2024-01-07T10:47:10;-0.70;69.00
7876;DHT22;69649;53.712;9.680;2024-01-07T10:49:40;-0.70;69.30
7876;DHT22;69649;53.712;9.680;2024-01-07T10:52:08;-0.50;69.00
7876;DHT22;69649;53.712;9.680;2024-01-07T10:54:35;-0.50;68.50
7876;DHT22;69649;53.712;9.680;2024-01-07T10:59:37;-0.30;68.40
7876;DHT22;69649;53.712;9.680;2024-01-07T11:02:04;-0.30;68.10
7876;DHT22;69649;53.712;9.680;2024-01-07T11:10:22;-0.10;67.10
7876;DHT22;69649;53.712;9.680;2024-01-07T11:12:54;-0.10;67.00
7876;DHT22;69649;53.712;9.680;2024-01-07T11:17:48;0.10;68.50
7876;DHT22;69649;53.712;9.680;2024-01-07T11:20:21;0.00;66.20
7876;DHT22;69649;53.712;9.680;2024-01-07T11:22:48;0.00;66.70
7876;DHT22;69649;53.712;9.680;2024-01-07T11:25:34;0.20;66.60
7876;DHT22;69649;53.712;9.680;2024-01-07T11:27:58;0.40;66.40
7876;DHT22;69649;53.712;9.680;2024-01-07T11:30:26;0.50;66.50
7876;DHT22;69649;53.712;9.680;2024-01-07T11:33:01;0.50;69.70
7876;DHT22;69649;53.712;9.680;2024-01-07T11:35:54;0.50;64.70
7876;DHT22;69649;53.712;9.680;2024-01-07T11:38:20;0.50;63.90
7876;DHT22;69649;53.712;9.680;2024-01-07T11:40:48;0.50;65.30
7876;DHT22;69649;53.712;9.680;2024-01-07T11:43:15;0.60;64.00
7876;DHT22;69649;53.712;9.680;2024-01-07T11:45:40;0.60;63.10
7876;DHT22;69649;53.712;9.680;2024-01-07T11:48:07;0.70;62.80
7876;DHT22;69649;53.712;9.680;2024-01-07T11:50:32;0.80;61.80
7876;DHT22;69649;53.712;9.680;2024-01-07T11:52:58;0.60;61.20
7876;DHT22;69649;53.712;9.680;2024-01-07T11:55:25;0.60;61.60
7876;DHT22;69649;53.712;9.680;2024-01-07T11:57:51;0.50;61.20
7876;DHT22;69649;53.712;9.680;2024-01-07T12:00:17;0.60;61.00
7876;DHT22;69649;53.712;9.680;2024-01-07T12:02:43;0.40;61.20
7876;DHT22;69649;53.712;9.680;2024-01-07T12:05:11;0.50;60.90
7876;DHT22;69649;53.712;9.680;2024-01-07T12:07:38;0.60;61.10
7876;DHT22;69649;53.712;9.680;2024-01-07T12:10:09;0.60;60.10
7876;DHT22;69649;53.712;9.680;2024-01-07T12:12:39;0.80;59.70
7876;DHT22;69649;53.712;9.680;2024-01-07T12:15:07;0.60;59.00
7876;DHT22;69649;53.712;9.680;2024-01-07T12:17:33;0.80;59.00
7876;DHT22;69649;53.712;9.680;2024-01-07T12:20:00;1.00;59.00
7876;DHT22;69649;53.712;9.680;2024-01-07T12:22:29;1.10;58.70
7876;DHT22;69649;53.712;9.680;2024-01-07T12:25:02;1.00;59.00
7876;DHT22;69649;53.712;9.680;2024-01-07T12:27:29;1.00;59.20
7876;DHT22;69649;53.712;9.680;2024-01-07T12:29:58;1.00;60.10
7876;DHT22;69649;53.712;9.680;2024-01-07T12:32:30;1.00;59.70
7876;DHT22;69649;53.712;9.680;2024-01-07T12:35:03;1.00;59.30
7876;DHT22;69649;53.712;9.680;2024-01-07T12:37:27;1.00;59.20
7876;DHT22;69649;53.712;9.680;2024-01-07T12:39:54;0.90;59.30
7876;DHT22;69649;53.712;9.680;2024-01-07T12:42:19;1.00;59.50
7876;DHT22;69649;53.712;9.680;2024-01-07T12:44:49;1.20;59.20
7876;DHT22;69649;53.712;9.680;2024-01-07T12:47:16;1.40;58.80
7876;DHT22;69649;53.712;9.680;2024-01-07T12:49:42;1.50;58.20
7876;DHT22;69649;53.712;9.680;2024-01-07T12:52:07;1.30;56.60
7876;DHT22;69649;53.712;9.680;2024-01-07T12:54:35;1.00;55.10
7876;DHT22;69649;53.712;9.680;2024-01-07T12:57:00;0.80;54.60
7876;DHT22;69649;53.712;9.680;2024-01-07T12:59:26;0.50;53.90
7876;DHT22;69649;53.712;9.680;2024-01-07T13:01:52;0.40;54.30
7876;DHT22;69649;53.712;9.680;2024-01-07T13:04:18;0.30;54.80
7876;DHT22;69649;53.712;9.680;2024-01-07T13:06:45;0.30;54.30
7876;DHT22;69649;53.712;9.680;2024-01-07T13:09:11;0.20;54.80
7876;DHT22;69649;53.712;9.680;2024-01-07T13:11:37;0.10;55.90
7876;DHT22;69649;53.712;9.680;2024-01-07T13:14:03;0.00;56.10
7876;DHT22;69649;53.712;9.680;2024-01-07T13:16:29;-0.10;56.90
7876;DHT22;69649;53.712;9.680;2024-01-07T13:18:55;0.00;56.80
7876;DHT22;69649;53.712;9.680;2024-01-07T13:21:21;0.00;57.30
7876;DHT22;69649;53.712;9.680;2024-01-07T13:23:47;-0.10;57.40
7876;DHT22;69649;53.712;9.680;2024-01-07T13:26:14;0.00;57.40
7876;DHT22;69649;53.712;9.680;2024-01-07T13:28:40;0.00;57.30
7876;DHT22;69649;53.712;9.680;2024-01-07T13:31:07;0.00;57.80
7876;DHT22;69649;53.712;9.680;2024-01-07T13:33:33;0.00;58.90
7876;DHT22;69649;53.712;9.680;2024-01-07T13:35:59;0.00;58.30
7876;DHT22;69649;53.712;9.680;2024-01-07T13:38:25;-0.10;58.80
7876;DHT22;69649;53.712;9.680;2024-01-07T13:40:51;-0.10;59.40
7876;DHT22;69649;53.712;9.680;2024-01-07T13:43:17;-0.20;59.00
7876;DHT22;69649;53.712;9.680;2024-01-07T13:45:43;-0.20;59.20
7876;DHT22;69649;53.712;9.680;2024-01-07T13:48:09;-0.30;59.60
7876;DHT22;69649;53.712;9.680;2024-01-07T13:50:35;-0.30;59.80
7876;DHT22;69649;53.712;9.680;2024-01-07T13:53:01;-0.30;59.80
7876;DHT22;69649;53.712;9.680;2024-01-07T13:55:27;0.00;70.50
7876;DHT22;69649;53.712;9.680;2024-01-07T13:57:53;0.00;61.70
7876;DHT22;69649;53.712;9.680;2024-01-07T14:00:19;0.00;59.80
7876;DHT22;69649;53.712;9.680;2024-01-07T14:02:46;-0.10;60.10
7876;DHT22;69649;53.712;9.680;2024-01-07T14:05:12;-0.20;61.40
7876;DHT22;69649;53.712;9.680;2024-01-07T14:07:38;-0.20;60.80
7876;DHT22;69649;53.712;9.680;2024-01-07T14:10:05;-0.50;60.70
7876;DHT22;69649;53.712;9.680;2024-01-07T14:12:31;-0.70;61.00
7876;DHT22;69649;53.712;9.680;2024-01-07T14:14:58;-0.90;62.00
7876;DHT22;69649;53.712;9.680;2024-01-07T14:17:25;-0.90;62.20
7876;DHT22;69649;53.712;9.680;2024-01-07T14:19:51;-1.10;62.00
7876;DHT22;69649;53.712;9.680;2024-01-07T14:22:20;-1.30;62.40
7876;DHT22;69649;53.712;9.680;2024-01-07T14:24:46;-1.50;63.00
7876;DHT22;69649;53.712;9.680;2024-01-07T14:27:12;-1.40;63.50
7876;DHT22;69649;53.712;9.680;2024-01-07T14:29:38;-1.30;63.00
7876;DHT22;69649;53.712;9.680;2024-01-07T14:32:05;-1.30;63.10
7876;DHT22;69649;53.712;9.680;2024-01-07T14:34:31;-1.30;63.20
7876;DHT22;69649;53.712;9.680;2024-01-07T14:36:57;-1.30;65.60
7876;DHT22;69649;53.712;9.680;2024-01-07T14:39:23;-1.40;64.20
7876;DHT22;69649;53.712;9.680;2024-01-07T14:41:49;-1.50;64.30
7876;DHT22;69649;53.712;9.680;2024-01-07T14:44:15;-1.50;64.40
7876;DHT22;69649;53.712;9.680;2024-01-07T14:46:41;-1.60;64.50
7876;DHT22;69649;53.712;9.680;2024-01-07T14:49:07;-1.60;64.90
7876;DHT22;69649;53.712;9.680;2024-01-07T14:51:33;-1.60;65.00
7876;DHT22;69649;53.712;9.680;2024-01-07T14:53:58;-1.60;65.20
7876;DHT22;69649;53.712;9.680;2024-01-07T14:56:25;-1.70;65.00
7876;DHT22;69649;53.712;9.680;2024-01-07T14:58:52;-1.80;65.00
7876;DHT22;69649;53.712;9.680;2024-01-07T15:01:18;-1.80;65.10
7876;DHT22;69649;53.712;9.680;2024-01-07T15:03:44;-1.80;65.30
7876;DHT22;69649;53.712;9.680;2024-01-07T15:06:10;-1.80;65.40
7876;DHT22;69649;53.712;9.680;2024-01-07T15:08:36;-1.90;65.40
7876;DHT22;69649;53.712;9.680;2024-01-07T15:11:02;-1.90;65.60
7876;DHT22;69649;53.712;9.680;2024-01-07T15:13:29;-1.80;67.30
7876;DHT22;69649;53.712;9.680;2024-01-07T15:15:56;-1.60;67.20
7876;DHT22;69649;53.712;9.680;2024-01-07T15:18:22;-1.60;66.00
7876;DHT22;69649;53.712;9.680;2024-01-07T15:20:47;-1.60;65.40
7876;DHT22;69649;53.712;9.680;2024-01-07T15:23:14;-1.80;65.40
7876;DHT22;69649;53.712;9.680;2024-01-07T15:25:39;-2.00;65.10
7876;DHT22;69649;53.712;9.680;2024-01-07T15:28:05;-1.90;65.80
7876;DHT22;69649;53.712;9.680;2024-01-07T15:30:31;-1.90;66.70
7876;DHT22;69649;53.712;9.680;2024-01-07T15:32:57;-1.90;66.50
7876;DHT22;69649;53.712;9.680;2024-01-07T15:35:23;-1.90;65.90
7876;DHT22;69649;53.712;9.680;2024-01-07T15:37:49;-1.90;65.90
7876;DHT22;69649;53.712;9.680;2024-01-07T15:40:15;-2.00;66.10
7876;DHT22;69649;53.712;9.680;2024-01-07T15:42:41;-2.00;66.00
7876;DHT22;69649;53.712;9.680;2024-01-07T15:45:07;-2.00;66.40
7876;DHT22;69649;53.712;9.680;2024-01-07T15:47:34;-1.90;66.00
7876;DHT22;69649;53.712;9.680;2024-01-07T15:50:00;-2.00;66.00
7876;DHT22;69649;53.712;9.680;2024-01-07T15:52:27;-2.00;66.10
7876;DHT22;69649;53.712;9.680;2024-01-07T15:54:54;-2.00;65.60
7876;DHT22;69649;53.712;9.680;2024-01-07T15:57:20;-2.10;66.90
7876;DHT22;69649;53.712;9.680;2024-01-07T15:59:47;-2.00;66.70